sensor_id;sensor_type;location;lat;lon;timestamp;P1;durP1;ratioP1;P2;durP2;ratioP2
83963;SDS011;73994;50.868;5.420;2024-03-08T00:02:07;19.67;;;11.75;;
83963;SDS011;73994;50.868;5.420;2024-03-08T00:04:32;22.02;;;12.15;;
83963;SDS011;73994;50.868;5.420;2024-03-08T00:06:58;19.88;;;12.43;;
83963;SDS011;73994;50.868;5.420;2024-03-08T00:09:24;21.50;;;12.55;;
83963;SDS011;73994;50.868;5.420;2024-03-08T00:11:52;22.05;;;12.75;;
83963;SDS011;73994;50.868;5.420;2024-03-08T00:14:18;21.40;;;12.88;;
83963;SDS011;73994;50.868;5.420;2024-03-08T00:16:43;18.05;;;12.30;;
83963;SDS011;73994;50.868;5.420;2024-03-08T00:19:09;19.90;;;12.55;;
83963;SDS011;73994;50.868;5.420;2024-03-08T00:21:35;19.85;;;13.35;;
83963;SDS011;73994;50.868;5.420;2024-03-08T00:24:01;21.80;;;13.52;;
83963;SDS011;73994;50.868;5.420;2024-03-08T00:26:27;21.50;;;12.25;;
83963;SDS011;73994;50.868;5.420;2024-03-08T00:28:53;27.73;;;14.43;;
83963;SDS011;73994;50.868;5.420;2024-03-08T00:31:19;21.80;;;13.23;;
83963;SDS011;73994;50.868;5.420;2024-03-08T00:33:45;18.55;;;12.02;;
83963;SDS011;73994;50.868;5.420;2024-03-08T00:36:11;18.80;;;12.00;;
83963;SDS011;73994;50.868;5.420;2024-03-08T00:38:36;19.92;;;12.32;;
83963;SDS011;73994;50.868;5.420;2024-03-08T00:41:02;19.67;;;13.18;;
83963;SDS011;73994;50.868;5.420;2024-03-08T00:43:28;21.02;;;13.80;;
83963;SDS011;73994;50.868;5.420;2024-03-08T00:45:56;21.10;;;13.70;;
83963;SDS011;73994;50.868;5.420;2024-03-08T00:48:23;21.45;;;13.38;;
83963;SDS011;73994;50.868;5.420;2024-03-08T00:50:48;22.33;;;13.30;;
83963;SDS011;73994;50.868;5.420;2024-03-08T00:53:14;19.92;;;13.43;;
83963;SDS011;73994;50.868;5.420;2024-03-08T00:55:40;23.63;;;14.82;;
83963;SDS011;73994;50.868;5.420;2024-03-08T00:58:05;21.35;;;14.05;;
83963;SDS011;73994;50.868;5.420;2024-03-08T01:00:31;23.20;;;14.80;;
83963;SDS011;73994;50.868;5.420;2024-03-08T01:02:57;22.33;;;13.50;;
83963;SDS011;73994;50.868;5.420;2024-03-08T01:05:23;18.20;;;13.25;;
83963;SDS011;73994;50.868;5.420;2024-03-08T01:07:49;24.27;;;14.70;;
83963;SDS011;73994;50.868;5.420;2024-03-08T01:10:15;19.90;;;13.05;;
83963;SDS011;73994;50.868;5.420;2024-03-08T01:12:41;21.33;;;14.13;;
83963;SDS011;73994;50.868;5.420;2024-03-08T01:15:08;23.20;;;13.73;;
83963;SDS011;73994;50.868;5.420;2024-03-08T01:17:35;25.88;;;14.82;;
83963;SDS011;73994;50.868;5.420;2024-03-08T01:20:01;23.08;;;13.73;;
83963;SDS011;73994;50.868;5.420;2024-03-08T01:22:27;22.30;;;14.98;;
83963;SDS011;73994;50.868;5.420;2024-03-08T01:24:54;22.88;;;14.57;;
83963;SDS011;73994;50.868;5.420;2024-03-08T01:27:21;22.83;;;14.07;;
83963;SDS011;73994;50.868;5.420;2024-03-08T01:29:46;21.60;;;14.93;;
83963;SDS011;73994;50.868;5.420;2024-03-08T01:32:13;21.75;;;14.07;;
83963;SDS011;73994;50.868;5.420;2024-03-08T01:34:39;22.73;;;14.13;;
83963;SDS011;73994;50.868;5.420;2024-03-08T01:37:05;24.70;;;14.55;;
83963;SDS011;73994;50.868;5.420;2024-03-08T01:39:31;23.92;;;14.52;;
83963;SDS011;73994;50.868;5.420;2024-03-08T01:41:58;24.10;;;14.93;;
83963;SDS011;73994;50.868;5.420;2024-03-08T01:44:23;22.00;;;13.63;;
83963;SDS011;73994;50.868;5.420;2024-03-08T01:46:49;22.90;;;15.40;;
83963;SDS011;73994;50.868;5.420;2024-03-08T01:49:18;22.58;;;14.45;;
83963;SDS011;73994;50.868;5.420;2024-03-08T01:51:46;20.55;;;13.68;;
83963;SDS011;73994;50.868;5.420;2024-03-08T01:54:13;23.38;;;14.93;;
83963;SDS011;73994;50.868;5.420;2024-03-08T01:56:41;23.35;;;14.88;;
83963;SDS011;73994;50.868;5.420;2024-03-08T01:59:08;25.67;;;15.27;;
83963;SDS011;73994;50.868;5.420;2024-03-08T02:01:34;23.88;;;14.23;;
83963;SDS011;73994;50.868;5.420;2024-03-08T02:04:00;22.25;;;14.65;;
83963;SDS011;73994;50.868;5.420;2024-03-08T02:06:26;22.23;;;14.10;;
83963;SDS011;73994;50.868;5.420;2024-03-08T02:08:52;23.58;;;14.40;;
83963;SDS011;73994;50.868;5.420;2024-03-08T02:11:18;23.85;;;15.18;;
83963;SDS011;73994;50.868;5.420;2024-03-08T02:13:45;23.63;;;15.27;;
83963;SDS011;73994;50.868;5.420;2024-03-08T02:16:11;25.50;;;14.68;;
83963;SDS011;73994;50.868;5.420;2024-03-08T02:18:37;22.88;;;14.23;;
83963;SDS011;73994;50.868;5.420;2024-03-08T02:21:04;22.52;;;14.30;;
83963;SDS011;73994;50.868;5.420;2024-03-08T02:23:31;23.70;;;14.55;;
83963;SDS011;73994;50.868;5.420;2024-03-08T02:25:57;23.45;;;14.82;;
83963;SDS011;73994;50.868;5.420;2024-03-08T02:28:23;22.15;;;14.70;;
83963;SDS011;73994;50.868;5.420;2024-03-08T02:30:53;20.77;;;13.90;;
83963;SDS011;73994;50.868;5.420;2024-03-08T02:33:20;25.08;;;14.73;;
83963;SDS011;73994;50.868;5.420;2024-03-08T02:35:47;23.60;;;14.60;;
83963;SDS011;73994;50.868;5.420;2024-03-08T02:38:15;23.33;;;14.63;;
83963;SDS011;73994;50.868;5.420;2024-03-08T02:40:45;20.33;;;13.73;;
83963;SDS011;73994;50.868;5.420;2024-03-08T02:43:12;24.15;;;14.90;;
83963;SDS011;73994;50.868;5.420;2024-03-08T02:45:45;24.70;;;14.52;;
83963;SDS011;73994;50.868;5.420;2024-03-08T02:48:11;22.08;;;14.38;;
83963;SDS011;73994;50.868;5.420;2024-03-08T02:50:38;23.90;;;13.73;;
83963;SDS011;73994;50.868;5.420;2024-03-08T02:53:07;23.10;;;14.48;;
83963;SDS011;73994;50.868;5.420;2024-03-08T02:55:33;23.50;;;14.35;;
83963;SDS011;73994;50.868;5.420;2024-03-08T02:58:01;23.10;;;14.52;;
83963;SDS011;73994;50.868;5.420;2024-03-08T03:00:28;25.77;;;15.45;;
83963;SDS011;73994;50.868;5.420;2024-03-08T03:02:56;23.02;;;13.88;;
83963;SDS011;73994;50.868;5.420;2024-03-08T03:05:22;26.20;;;14.48;;
83963;SDS011;73994;50.868;5.420;2024-03-08T03:07:49;21.60;;;14.07;;
83963;SDS011;73994;50.868;5.420;2024-03-08T03:10:18;21.70;;;13.88;;
83963;SDS011;73994;50.868;5.420;2024-03-08T03:12:44;23.88;;;14.85;;
83963;SDS011;73994;50.868;5.420;2024-03-08T03:15:11;25.10;;;14.95;;
83963;SDS011;73994;50.868;5.420;2024-03-08T03:17:37;24.42;;;13.98;;
83963;SDS011;73994;50.868;5.420;2024-03-08T03:20:06;23.85;;;14.63;;
83963;SDS011;73994;50.868;5.420;2024-03-08T03:22:38;24.20;;;14.80;;
83963;SDS011;73994;50.868;5.420;2024-03-08T03:25:04;22.98;;;14.68;;
83963;SDS011;73994;50.868;5.420;2024-03-08T03:27:31;22.27;;;14.57;;
83963;SDS011;73994;50.868;5.420;2024-03-08T03:29:57;22.40;;;13.25;;
83963;SDS011;73994;50.868;5.420;2024-03-08T03:32:23;24.77;;;14.32;;
83963;SDS011;73994;50.868;5.420;2024-03-08T03:34:49;23.98;;;14.38;;
83963;SDS011;73994;50.868;5.420;2024-03-08T03:37:20;23.27;;;13.98;;
83963;SDS011;73994;50.868;5.420;2024-03-08T03:39:46;23.50;;;13.82;;
83963;SDS011;73994;50.868;5.420;2024-03-08T03:42:17;23.70;;;14.07;;
83963;SDS011;73994;50.868;5.420;2024-03-08T03:44:46;23.95;;;14.38;;
83963;SDS011;73994;50.868;5.420;2024-03-08T03:47:13;22.67;;;13.63;;
83963;SDS011;73994;50.868;5.420;2024-03-08T03:49:40;23.95;;;13.70;;
83963;SDS011;73994;50.868;5.420;2024-03-08T03:52:08;25.77;;;15.15;;
83963;SDS011;73994;50.868;5.420;2024-03-08T03:54:35;23.60;;;14.63;;
83963;SDS011;73994;50.868;5.420;2024-03-08T03:57:01;24.65;;;14.95;;
83963;SDS011;73994;50.868;5.420;2024-03-08T03:59:27;20.88;;;13.00;;
83963;SDS011;73994;50.868;5.420;2024-03-08T04:01:54;24.58;;;14.10;;
83963;SDS011;73994;50.868;5.420;2024-03-08T04:04:22;24.27;;;14.90;;
83963;SDS011;73994;50.868;5.420;2024-03-08T04:06:49;22.92;;;13.63;;
83963;SDS011;73994;50.868;5.420;2024-03-08T04:09:16;24.75;;;15.13;;
83963;SDS011;73994;50.868;5.420;2024-03-08T04:11:44;24.52;;;14.10;;
83963;SDS011;73994;50.868;5.420;2024-03-08T04:14:10;22.67;;;14.13;;
83963;SDS011;73994;50.868;5.420;2024-03-08T04:16:37;22.70;;;13.98;;
83963;SDS011;73994;50.868;5.420;2024-03-08T04:19:02;23.65;;;14.02;;
83963;SDS011;73994;50.868;5.420;2024-03-08T04:21:32;24.33;;;14.95;;
83963;SDS011;73994;50.868;5.420;2024-03-08T04:23:57;23.52;;;15.07;;
83963;SDS011;73994;50.868;5.420;2024-03-08T04:26:23;24.98;;;15.15;;
83963;SDS011;73994;50.868;5.420;2024-03-08T04:28:51;21.15;;;14.15;;
83963;SDS011;73994;50.868;5.420;2024-03-08T04:31:16;24.08;;;14.95;;
83963;SDS011;73994;50.868;5.420;2024-03-08T04:33:42;20.60;;;13.40;;
83963;SDS011;73994;50.868;5.420;2024-03-08T04:36:09;25.23;;;14.25;;
83963;SDS011;73994;50.868;5.420;2024-03-08T04:38:38;26.77;;;14.88;;
83963;SDS011;73994;50.868;5.420;2024-03-08T04:41:07;23.10;;;13.57;;
83963;SDS011;73994;50.868;5.420;2024-03-08T04:43:33;21.60;;;12.93;;
83963;SDS011;73994;50.868;5.420;2024-03-08T04:45:59;22.27;;;13.27;;
83963;SDS011;73994;50.868;5.420;2024-03-08T04:48:25;22.20;;;13.70;;
83963;SDS011;73994;50.868;5.420;2024-03-08T04:50:53;24.25;;;15.00;;
83963;SDS011;73994;50.868;5.420;2024-03-08T04:53:20;24.80;;;14.52;;
83963;SDS011;73994;50.868;5.420;2024-03-08T04:55:46;26.08;;;15.55;;
83963;SDS011;73994;50.868;5.420;2024-03-08T04:58:12;24.80;;;13.75;;
83963;SDS011;73994;50.868;5.420;2024-03-08T05:00:38;24.42;;;13.80;;
83963;SDS011;73994;50.868;5.420;2024-03-08T05:03:04;22.70;;;14.65;;
83963;SDS011;73994;50.868;5.420;2024-03-08T05:05:30;25.58;;;14.05;;
83963;SDS011;73994;50.868;5.420;2024-03-08T05:07:56;25.00;;;14.00;;
83963;SDS011;73994;50.868;5.420;2024-03-08T05:10:21;25.13;;;15.00;;
83963;SDS011;73994;50.868;5.420;2024-03-08T05:12:47;25.23;;;14.02;;
83963;SDS011;73994;50.868;5.420;2024-03-08T05:15:13;25.63;;;15.13;;
83963;SDS011;73994;50.868;5.420;2024-03-08T05:17:39;24.70;;;13.80;;
83963;SDS011;73994;50.868;5.420;2024-03-08T05:20:05;25.15;;;15.32;;
83963;SDS011;73994;50.868;5.420;2024-03-08T05:22:37;24.60;;;14.43;;
83963;SDS011;73994;50.868;5.420;2024-03-08T05:25:03;22.95;;;14.00;;
83963;SDS011;73994;50.868;5.420;2024-03-08T05:27:29;22.88;;;13.02;;
83963;SDS011;73994;50.868;5.420;2024-03-08T05:29:54;26.17;;;13.50;;
83963;SDS011;73994;50.868;5.420;2024-03-08T05:32:20;23.08;;;12.50;;
83963;SDS011;73994;50.868;5.420;2024-03-08T05:34:46;26.27;;;14.32;;
83963;SDS011;73994;50.868;5.420;2024-03-08T05:37:12;23.30;;;13.23;;
83963;SDS011;73994;50.868;5.420;2024-03-08T05:39:37;25.90;;;13.60;;
83963;SDS011;73994;50.868;5.420;2024-03-08T05:42:03;24.17;;;12.25;;
83963;SDS011;73994;50.868;5.420;2024-03-08T05:44:29;25.13;;;12.68;;
83963;SDS011;73994;50.868;5.420;2024-03-08T05:46:56;23.60;;;14.35;;
83963;SDS011;73994;50.868;5.420;2024-03-08T05:49:21;23.33;;;12.55;;
83963;SDS011;73994;50.868;5.420;2024-03-08T05:51:47;26.75;;;13.57;;
83963;SDS011;73994;50.868;5.420;2024-03-08T05:54:13;24.67;;;13.88;;
83963;SDS011;73994;50.868;5.420;2024-03-08T05:56:39;25.38;;;13.65;;
83963;SDS011;73994;50.868;5.420;2024-03-08T05:59:09;28.40;;;15.35;;
83963;SDS011;73994;50.868;5.420;2024-03-08T06:01:35;25.25;;;13.95;;
83963;SDS011;73994;50.868;5.420;2024-03-08T06:04:02;27.05;;;14.40;;
83963;SDS011;73994;50.868;5.420;2024-03-08T06:06:28;22.05;;;14.07;;
83963;SDS011;73994;50.868;5.420;2024-03-08T06:08:54;28.27;;;14.05;;
83963;SDS011;73994;50.868;5.420;2024-03-08T06:11:24;25.60;;;13.93;;
83963;SDS011;73994;50.868;5.420;2024-03-08T06:13:52;25.48;;;13.43;;
83963;SDS011;73994;50.868;5.420;2024-03-08T06:16:24;28.52;;;14.73;;
83963;SDS011;73994;50.868;5.420;2024-03-08T06:18:54;28.15;;;15.23;;
83963;SDS011;73994;50.868;5.420;2024-03-08T06:21:23;22.50;;;13.10;;
83963;SDS011;73994;50.868;5.420;2024-03-08T06:23:52;26.58;;;14.20;;
83963;SDS011;73994;50.868;5.420;2024-03-08T06:26:22;30.15;;;15.65;;
83963;SDS011;73994;50.868;5.420;2024-03-08T06:28:49;27.13;;;14.45;;
83963;SDS011;73994;50.868;5.420;2024-03-08T06:31:16;27.50;;;13.82;;
83963;SDS011;73994;50.868;5.420;2024-03-08T06:33:41;26.52;;;13.98;;
83963;SDS011;73994;50.868;5.420;2024-03-08T06:36:08;28.02;;;14.07;;
83963;SDS011;73994;50.868;5.420;2024-03-08T06:38:34;28.17;;;14.32;;
83963;SDS011;73994;50.868;5.420;2024-03-08T06:40:59;28.73;;;13.82;;
83963;SDS011;73994;50.868;5.420;2024-03-08T06:43:28;30.90;;;14.32;;
83963;SDS011;73994;50.868;5.420;2024-03-08T06:45:59;29.13;;;14.70;;
83963;SDS011;73994;50.868;5.420;2024-03-08T06:48:25;25.20;;;13.60;;
83963;SDS011;73994;50.868;5.420;2024-03-08T06:50:50;26.02;;;14.48;;
83963;SDS011;73994;50.868;5.420;2024-03-08T06:53:16;22.17;;;13.57;;
83963;SDS011;73994;50.868;5.420;2024-03-08T06:55:44;24.50;;;13.27;;
83963;SDS011;73994;50.868;5.420;2024-03-08T06:58:10;29.45;;;13.70;;
83963;SDS011;73994;50.868;5.420;2024-03-08T07:00:36;31.38;;;14.90;;
83963;SDS011;73994;50.868;5.420;2024-03-08T07:03:02;26.35;;;13.23;;
83963;SDS011;73994;50.868;5.420;2024-03-08T07:05:29;23.50;;;13.45;;
83963;SDS011;73994;50.868;5.420;2024-03-08T07:07:55;28.13;;;13.68;;
83963;SDS011;73994;50.868;5.420;2024-03-08T07:10:24;27.02;;;13.05;;
83963;SDS011;73994;50.868;5.420;2024-03-08T07:12:50;24.58;;;11.88;;
83963;SDS011;73994;50.868;5.420;2024-03-08T07:15:18;23.08;;;13.93;;
83963;SDS011;73994;50.868;5.420;2024-03-08T07:17:45;22.83;;;13.05;;
83963;SDS011;73994;50.868;5.420;2024-03-08T07:20:11;24.60;;;13.40;;
83963;SDS011;73994;50.868;5.420;2024-03-08T07:22:39;26.48;;;13.27;;
83963;SDS011;73994;50.868;5.420;2024-03-08T07:25:05;20.77;;;12.02;;
83963;SDS011;73994;50.868;5.420;2024-03-08T07:27:50;24.38;;;13.38;;
83963;SDS011;73994;50.868;5.420;2024-03-08T07:30:20;22.98;;;14.20;;
83963;SDS011;73994;50.868;5.420;2024-03-08T07:33:06;19.63;;;10.95;;
83963;SDS011;73994;50.868;5.420;2024-03-08T07:35:32;22.52;;;13.63;;
83963;SDS011;73994;50.868;5.420;2024-03-08T07:38:02;21.80;;;12.82;;
83963;SDS011;73994;50.868;5.420;2024-03-08T07:40:37;23.00;;;13.30;;
83963;SDS011;73994;50.868;5.420;2024-03-08T07:43:06;21.70;;;11.95;;
83963;SDS011;73994;50.868;5.420;2024-03-08T07:45:32;23.48;;;13.23;;
83963;SDS011;73994;50.868;5.420;2024-03-08T07:47:58;23.70;;;13.13;;
83963;SDS011;73994;50.868;5.420;2024-03-08T07:50:24;22.67;;;11.50;;
83963;SDS011;73994;50.868;5.420;2024-03-08T07:52:49;21.30;;;13.70;;
83963;SDS011;73994;50.868;5.420;2024-03-08T07:55:16;20.65;;;11.98;;
83963;SDS011;73994;50.868;5.420;2024-03-08T07:57:41;23.63;;;12.25;;
83963;SDS011;73994;50.868;5.420;2024-03-08T08:00:10;22.83;;;12.85;;
83963;SDS011;73994;50.868;5.420;2024-03-08T08:02:38;25.00;;;13.05;;
83963;SDS011;73994;50.868;5.420;2024-03-08T08:05:04;21.13;;;12.40;;
83963;SDS011;73994;50.868;5.420;2024-03-08T08:07:30;21.75;;;13.23;;
83963;SDS011;73994;50.868;5.420;2024-03-08T08:09:56;21.35;;;11.88;;
83963;SDS011;73994;50.868;5.420;2024-03-08T08:12:22;24.35;;;12.82;;
83963;SDS011;73994;50.868;5.420;2024-03-08T08:14:47;24.55;;;13.18;;
83963;SDS011;73994;50.868;5.420;2024-03-08T08:17:13;18.73;;;12.32;;
83963;SDS011;73994;50.868;5.420;2024-03-08T08:19:40;19.40;;;12.38;;
83963;SDS011;73994;50.868;5.420;2024-03-08T08:22:06;22.45;;;12.95;;
83963;SDS011;73994;50.868;5.420;2024-03-08T08:24:34;23.67;;;12.27;;
83963;SDS011;73994;50.868;5.420;2024-03-08T08:27:01;20.75;;;12.18;;
83963;SDS011;73994;50.868;5.420;2024-03-08T08:29:27;20.05;;;11.80;;
83963;SDS011;73994;50.868;5.420;2024-03-08T08:32:01;26.23;;;18.88;;
83963;SDS011;73994;50.868;5.420;2024-03-08T08:34:27;24.88;;;14.35;;
83963;SDS011;73994;50.868;5.420;2024-03-08T08:36:53;21.83;;;13.40;;
83963;SDS011;73994;50.868;5.420;2024-03-08T08:39:19;23.10;;;13.57;;
83963;SDS011;73994;50.868;5.420;2024-03-08T08:41:47;25.20;;;13.88;;
83963;SDS011;73994;50.868;5.420;2024-03-08T08:44:13;20.40;;;11.55;;
83963;SDS011;73994;50.868;5.420;2024-03-08T08:46:40;21.27;;;12.30;;
83963;SDS011;73994;50.868;5.420;2024-03-08T08:49:05;18.83;;;11.27;;
83963;SDS011;73994;50.868;5.420;2024-03-08T08:51:35;21.00;;;12.18;;
83963;SDS011;73994;50.868;5.420;2024-03-08T08:54:01;16.55;;;10.40;;
83963;SDS011;73994;50.868;5.420;2024-03-08T08:56:27;19.83;;;11.68;;
83963;SDS011;73994;50.868;5.420;2024-03-08T08:58:53;21.63;;;11.73;;
83963;SDS011;73994;50.868;5.420;2024-03-08T09:01:19;20.40;;;12.13;;
83963;SDS011;73994;50.868;5.420;2024-03-08T09:03:45;17.63;;;10.90;;
83963;SDS011;73994;50.868;5.420;2024-03-08T09:06:15;20.95;;;11.95;;
83963;SDS011;73994;50.868;5.420;2024-03-08T09:08:42;21.13;;;13.00;;
83963;SDS011;73994;50.868;5.420;2024-03-08T09:11:09;19.50;;;11.85;;
83963;SDS011;73994;50.868;5.420;2024-03-08T09:13:35;19.50;;;13.10;;
83963;SDS011;73994;50.868;5.420;2024-03-08T09:16:04;19.55;;;12.30;;
83963;SDS011;73994;50.868;5.420;2024-03-08T09:18:31;18.67;;;11.23;;
83963;SDS011;73994;50.868;5.420;2024-03-08T09:20:57;18.02;;;11.88;;
83963;SDS011;73994;50.868;5.420;2024-03-08T09:23:24;16.88;;;10.23;;
83963;SDS011;73994;50.868;5.420;2024-03-08T09:25:55;16.70;;;10.60;;
83963;SDS011;73994;50.868;5.420;2024-03-08T09:28:22;18.95;;;11.80;;
83963;SDS011;73994;50.868;5.420;2024-03-08T09:30:48;19.83;;;11.27;;
83963;SDS011;73994;50.868;5.420;2024-03-08T09:33:14;15.32;;;10.80;;
83963;SDS011;73994;50.868;5.420;2024-03-08T09:35:44;17.42;;;11.82;;
83963;SDS011;73994;50.868;5.420;2024-03-08T09:38:13;18.15;;;11.25;;
83963;SDS011;73994;50.868;5.420;2024-03-08T09:40:42;19.08;;;13.43;;
83963;SDS011;73994;50.868;5.420;2024-03-08T09:43:11;20.25;;;12.25;;
83963;SDS011;73994;50.868;5.420;2024-03-08T09:45:37;15.82;;;11.45;;
83963;SDS011;73994;50.868;5.420;2024-03-08T09:48:12;16.88;;;11.13;;
83963;SDS011;73994;50.868;5.420;2024-03-08T09:50:42;17.60;;;12.52;;
83963;SDS011;73994;50.868;5.420;2024-03-08T09:53:08;22.65;;;11.73;;
83963;SDS011;73994;50.868;5.420;2024-03-08T09:58:05;16.27;;;11.32;;
83963;SDS011;73994;50.868;5.420;2024-03-08T10:00:51;19.80;;;11.60;;
83963;SDS011;73994;50.868;5.420;2024-03-08T10:03:19;16.83;;;10.68;;
83963;SDS011;73994;50.868;5.420;2024-03-08T10:05:45;17.50;;;12.60;;
83963;SDS011;73994;50.868;5.420;2024-03-08T10:08:11;17.02;;;11.65;;
83963;SDS011;73994;50.868;5.420;2024-03-08T10:10:38;19.63;;;11.98;;
83963;SDS011;73994;50.868;5.420;2024-03-08T10:13:07;16.00;;;11.35;;
83963;SDS011;73994;50.868;5.420;2024-03-08T10:15:34;16.45;;;11.77;;
83963;SDS011;73994;50.868;5.420;2024-03-08T10:18:00;20.83;;;13.23;;
83963;SDS011;73994;50.868;5.420;2024-03-08T10:20:30;19.77;;;13.02;;
83963;SDS011;73994;50.868;5.420;2024-03-08T10:23:02;19.58;;;12.70;;
83963;SDS011;73994;50.868;5.420;2024-03-08T10:25:32;16.27;;;10.57;;
83963;SDS011;73994;50.868;5.420;2024-03-08T10:27:59;18.60;;;12.68;;
83963;SDS011;73994;50.868;5.420;2024-03-08T10:30:29;18.48;;;12.40;;
83963;SDS011;73994;50.868;5.420;2024-03-08T10:32:54;16.65;;;12.88;;
83963;SDS011;73994;50.868;5.420;2024-03-08T10:35:21;18.35;;;11.75;;
83963;SDS011;73994;50.868;5.420;2024-03-08T10:37:48;17.95;;;12.95;;
83963;SDS011;73994;50.868;5.420;2024-03-08T10:40:18;19.15;;;13.18;;
83963;SDS011;73994;50.868;5.420;2024-03-08T10:42:51;17.15;;;11.90;;
83963;SDS011;73994;50.868;5.420;2024-03-08T10:50:41;17.92;;;12.55;;
83963;SDS011;73994;50.868;5.420;2024-03-08T10:53:10;19.13;;;12.75;;
83963;SDS011;73994;50.868;5.420;2024-03-08T10:55:39;15.63;;;12.52;;
83963;SDS011;73994;50.868;5.420;2024-03-08T10:58:06;18.00;;;12.93;;
83963;SDS011;73994;50.868;5.420;2024-03-08T11:00:33;15.02;;;13.27;;
83963;SDS011;73994;50.868;5.420;2024-03-08T11:02:59;16.58;;;14.57;;
83963;SDS011;73994;50.868;5.420;2024-03-08T11:05:32;14.60;;;12.57;;
83963;SDS011;73994;50.868;5.420;2024-03-08T11:08:17;15.98;;;13.70;;
83963;SDS011;73994;50.868;5.420;2024-03-08T11:10:53;16.05;;;14.02;;
83963;SDS011;73994;50.868;5.420;2024-03-08T11:13:33;16.05;;;14.05;;
83963;SDS011;73994;50.868;5.420;2024-03-08T11:15:59;17.52;;;14.30;;
83963;SDS011;73994;50.868;5.420;2024-03-08T11:18:26;17.52;;;15.45;;
83963;SDS011;73994;50.868;5.420;2024-03-08T11:20:54;16.20;;;13.65;;
83963;SDS011;73994;50.868;5.420;2024-03-08T11:23:22;16.52;;;13.77;;
83963;SDS011;73994;50.868;5.420;2024-03-08T11:25:49;17.17;;;14.50;;
83963;SDS011;73994;50.868;5.420;2024-03-08T11:33:29;16.85;;;15.13;;
83963;SDS011;73994;50.868;5.420;2024-03-08T11:36:03;16.38;;;14.70;;
83963;SDS011;73994;50.868;5.420;2024-03-08T11:38:42;17.77;;;15.88;;
83963;SDS011;73994;50.868;5.420;2024-03-08T11:41:15;17.02;;;15.43;;
83963;SDS011;73994;50.868;5.420;2024-03-08T11:43:42;17.42;;;15.80;;
83963;SDS011;73994;50.868;5.420;2024-03-08T11:46:12;18.13;;;16.27;;
83963;SDS011;73994;50.868;5.420;2024-03-08T11:48:39;17.38;;;14.68;;
83963;SDS011;73994;50.868;5.420;2024-03-08T11:51:08;16.98;;;15.38;;
83963;SDS011;73994;50.868;5.420;2024-03-08T11:53:38;16.35;;;14.75;;
83963;SDS011;73994;50.868;5.420;2024-03-08T11:56:09;16.73;;;15.02;;
83963;SDS011;73994;50.868;5.420;2024-03-08T11:58:36;17.98;;;16.17;;
83963;SDS011;73994;50.868;5.420;2024-03-08T12:01:06;18.25;;;16.45;;
83963;SDS011;73994;50.868;5.420;2024-03-08T12:03:43;17.17;;;15.57;;
83963;SDS011;73994;50.868;5.420;2024-03-08T12:06:09;17.10;;;15.32;;
83963;SDS011;73994;50.868;5.420;2024-03-08T12:08:40;17.95;;;16.15;;
83963;SDS011;73994;50.868;5.420;2024-03-08T12:11:06;18.52;;;16.63;;
83963;SDS011;73994;50.868;5.420;2024-03-08T12:13:35;18.63;;;15.73;;
83963;SDS011;73994;50.868;5.420;2024-03-08T12:16:03;16.33;;;14.82;;
83963;SDS011;73994;50.868;5.420;2024-03-08T12:18:33;16.55;;;15.07;;
83963;SDS011;73994;50.868;5.420;2024-03-08T12:21:04;16.88;;;15.38;;
83963;SDS011;73994;50.868;5.420;2024-03-08T12:23:34;16.38;;;14.93;;
83963;SDS011;73994;50.868;5.420;2024-03-08T12:26:23;16.95;;;15.23;;
83963;SDS011;73994;50.868;5.420;2024-03-08T12:28:50;16.20;;;14.52;;
83963;SDS011;73994;50.868;5.420;2024-03-08T12:31:16;16.70;;;15.23;;
83963;SDS011;73994;50.868;5.420;2024-03-08T12:36:15;16.58;;;14.93;;
83963;SDS011;73994;50.868;5.420;2024-03-08T12:38:44;16.05;;;14.63;;
83963;SDS011;73994;50.868;5.420;2024-03-08T12:41:14;17.27;;;15.68;;
83963;SDS011;73994;50.868;5.420;2024-03-08T12:43:40;15.23;;;13.73;;
83963;SDS011;73994;50.868;5.420;2024-03-08T12:46:06;16.08;;;14.68;;
83963;SDS011;73994;50.868;5.420;2024-03-08T12:48:36;15.98;;;14.55;;
83963;SDS011;73994;50.868;5.420;2024-03-08T12:51:05;17.40;;;15.85;;
83963;SDS011;73994;50.868;5.420;2024-03-08T12:53:32;16.45;;;15.05;;
83963;SDS011;73994;50.868;5.420;2024-03-08T12:55:58;13.95;;;12.55;;
83963;SDS011;73994;50.868;5.420;2024-03-08T12:58:24;16.27;;;14.77;;
83963;SDS011;73994;50.868;5.420;2024-03-08T13:00:51;16.30;;;14.82;;
83963;SDS011;73994;50.868;5.420;2024-03-08T13:03:17;16.70;;;15.20;;
83963;SDS011;73994;50.868;5.420;2024-03-08T13:05:43;16.40;;;14.90;;
83963;SDS011;73994;50.868;5.420;2024-03-08T13:08:08;16.98;;;15.57;;
83963;SDS011;73994;50.868;5.420;2024-03-08T13:10:38;16.25;;;14.75;;
83963;SDS011;73994;50.868;5.420;2024-03-08T13:13:04;14.68;;;13.38;;
83963;SDS011;73994;50.868;5.420;2024-03-08T13:15:30;16.20;;;14.90;;
83963;SDS011;73994;50.868;5.420;2024-03-08T13:17:56;16.63;;;15.02;;
83963;SDS011;73994;50.868;5.420;2024-03-08T13:20:25;15.27;;;13.98;;
83963;SDS011;73994;50.868;5.420;2024-03-08T13:22:53;15.50;;;14.20;;
83963;SDS011;73994;50.868;5.420;2024-03-08T13:25:19;14.32;;;13.13;;
83963;SDS011;73994;50.868;5.420;2024-03-08T13:27:45;14.73;;;13.40;;
83963;SDS011;73994;50.868;5.420;2024-03-08T13:30:12;16.27;;;14.82;;
83963;SDS011;73994;50.868;5.420;2024-03-08T13:32:40;15.32;;;13.93;;
83963;SDS011;73994;50.868;5.420;2024-03-08T13:35:08;16.58;;;15.10;;
83963;SDS011;73994;50.868;5.420;2024-03-08T13:37:38;16.80;;;15.23;;
83963;SDS011;73994;50.868;5.420;2024-03-08T13:40:05;16.75;;;15.15;;
83963;SDS011;73994;50.868;5.420;2024-03-08T13:42:35;14.23;;;12.93;;
83963;SDS011;73994;50.868;5.420;2024-03-08T13:45:08;15.65;;;14.20;;
83963;SDS011;73994;50.868;5.420;2024-03-08T13:47:38;15.48;;;13.98;;
83963;SDS011;73994;50.868;5.420;2024-03-08T13:50:10;15.48;;;14.13;;
83963;SDS011;73994;50.868;5.420;2024-03-08T13:52:43;15.80;;;14.40;;
83963;SDS011;73994;50.868;5.420;2024-03-08T13:55:09;15.25;;;13.95;;
83963;SDS011;73994;50.868;5.420;2024-03-08T13:57:35;14.85;;;13.55;;
83963;SDS011;73994;50.868;5.420;2024-03-08T14:00:01;14.57;;;13.27;;
83963;SDS011;73994;50.868;5.420;2024-03-08T14:02:28;15.55;;;14.15;;
83963;SDS011;73994;50.868;5.420;2024-03-08T14:04:55;15.20;;;14.00;;
83963;SDS011;73994;50.868;5.420;2024-03-08T14:07:22;14.98;;;13.68;;
83963;SDS011;73994;50.868;5.420;2024-03-08T14:09:48;16.55;;;15.13;;
83963;SDS011;73994;50.868;5.420;2024-03-08T14:12:17;14.07;;;12.88;;
83963;SDS011;73994;50.868;5.420;2024-03-08T14:14:44;15.82;;;14.48;;
83963;SDS011;73994;50.868;5.420;2024-03-08T14:17:09;13.63;;;12.43;;
83963;SDS011;73994;50.868;5.420;2024-03-08T14:19:36;15.45;;;14.15;;
83963;SDS011;73994;50.868;5.420;2024-03-08T14:22:04;14.20;;;12.82;;
83963;SDS011;73994;50.868;5.420;2024-03-08T14:24:30;15.30;;;14.00;;
83963;SDS011;73994;50.868;5.420;2024-03-08T14:26:56;14.75;;;13.55;;
83963;SDS011;73994;50.868;5.420;2024-03-08T14:29:24;14.38;;;13.00;;
83963;SDS011;73994;50.868;5.420;2024-03-08T14:31:54;14.25;;;12.77;;
83963;SDS011;73994;50.868;5.420;2024-03-08T14:34:22;16.00;;;14.63;;
83963;SDS011;73994;50.868;5.420;2024-03-08T14:36:52;14.85;;;13.50;;
83963;SDS011;73994;50.868;5.420;2024-03-08T14:39:18;15.48;;;13.95;;